Terminal Aerodrome Forecast
Issued by NWS Mt. Holly, NJ

Home | Current Version | Previous Version | Text Only | Print | Product List | Glossary On
Versions: 1 2 3 4 5 6 7 8 9 10 11 12 13
000
FTAK31 PANC 201135
TAFABE
TAF
PABE 201135Z 2012/2112 33012KT P6SM OVC080
     FM201800 33015G25KT P6SM SCT050 SCT250
     FM210600 34014KT P6SM SCT050=

USA.gov is the U.S. government's official web portal to all federal, state and local government web resources and services.